Time;durP1;ratioP1;P1;durP2;ratioP2;P2;SDS_P1;SDS_P2;PMS_P1;PMS_P2;Temp;Humidity;BMP_temperature;BMP_pressure;BME280_temperature;BME280_humidity;BME280_pressure;Samples;Min_cycle;Max_cycle;Signal;HPM_P1;HPM_P2
2023/02/13 00:00:46;;;;;;;24.65;11.27;;;;;;;;;;5051962;28;20048;-75
2023/02/13 00:03:13;;;;;;;22.35;10.55;;;;;;;;;;5051648;28;20500;-76
2023/02/13 00:05:40;;;;;;;24.33;10.68;;;;;;;;;;5044440;28;20046;-76
2023/02/13 00:08:07;;;;;;;29.88;11.30;;;;;;;;;;5031270;28;20046;-76
2023/02/13 00:10:33;;;;;;;26.73;10.77;;;;;;;;;;5032186;28;20132;-76
2023/02/13 00:13:00;;;;;;;24.25;10.00;;;;;;;;;;5031919;28;20045;-77
2023/02/13 00:15:28;;;;;;;22.58;10.40;;;;;;;;;;5040678;28;20132;-76
2023/02/13 00:17:54;;;;;;;26.90;11.50;;;;;;;;;;5052084;28;20128;-75
2023/02/13 00:20:21;;;;;;;25.45;11.98;;;;;;;;;;5051758;28;20048;-75
2023/02/13 00:22:48;;;;;;;26.65;10.98;;;;;;;;;;5050941;28;20146;-77
2023/02/13 00:25:14;;;;;;;26.33;11.25;;;;;;;;;;5051575;28;20076;-75
2023/02/13 00:27:41;;;;;;;29.33;12.20;;;;;;;;;;5051935;28;20045;-76
2023/02/13 00:30:08;;;;;;;28.10;12.30;;;;;;;;;;5051587;28;20504;-76
2023/02/13 00:32:36;;;;;;;27.05;11.63;;;;;;;;;;5051630;28;20542;-76
2023/02/13 00:35:03;;;;;;;30.42;11.90;;;;;;;;;;5051802;28;20045;-77
2023/02/13 00:37:30;;;;;;;28.48;12.07;;;;;;;;;;5051583;28;20045;-76
2023/02/13 00:39:57;;;;;;;33.33;13.63;;;;;;;;;;5051990;28;20045;-75
2023/02/13 00:42:25;;;;;;;28.50;12.93;;;;;;;;;;5051396;28;20136;-75
2023/02/13 00:44:52;;;;;;;26.15;13.02;;;;;;;;;;5051264;28;20040;-75
2023/02/13 00:47:18;;;;;;;27.80;12.43;;;;;;;;;;5051764;28;20047;-76
2023/02/13 00:49:46;;;;;;;29.85;12.18;;;;;;;;;;5051719;28;20442;-76
2023/02/13 00:52:13;;;;;;;29.30;12.32;;;;;;;;;;5051165;28;20052;-76
2023/02/13 00:54:39;;;;;;;24.95;10.82;;;;;;;;;;5051244;28;20040;-76
2023/02/13 00:57:06;;;;;;;27.38;11.40;;;;;;;;;;5051427;28;20411;-75
2023/02/13 00:59:32;;;;;;;26.15;10.13;;;;;;;;;;5051658;28;20135;-75
2023/02/13 01:01:59;;;;;;;30.50;12.00;;;;;;;;;;5050777;28;20045;-77
2023/02/13 01:04:25;;;;;;;29.10;11.35;;;;;;;;;;5051373;28;20060;-75
2023/02/13 01:06:53;;;;;;;26.13;11.40;;;;;;;;;;5052744;28;20559;-75
2023/02/13 01:09:20;;;;;;;26.77;11.27;;;;;;;;;;5057664;28;20052;-75
2023/02/13 01:11:47;;;;;;;28.15;11.52;;;;;;;;;;5060083;28;20049;-76
2023/02/13 01:14:13;;;;;;;29.15;12.23;;;;;;;;;;5059250;28;20055;-75
2023/02/13 01:16:40;;;;;;;32.78;12.45;;;;;;;;;;5062404;28;20129;-75
2023/02/13 01:19:06;;;;;;;30.60;12.50;;;;;;;;;;5057280;28;20055;-76
2023/02/13 01:21:33;;;;;;;32.22;12.20;;;;;;;;;;5054733;28;20045;-75
2023/02/13 01:24:05;;;;;;;30.60;12.45;;;;;;;;;;5055261;28;20048;-74
2023/02/13 01:26:31;;;;;;;26.38;11.85;;;;;;;;;;5055014;28;20479;-76
2023/02/13 01:28:58;;;;;;;29.02;11.18;;;;;;;;;;5055074;28;20108;-76
2023/02/13 01:31:25;;;;;;;32.90;11.77;;;;;;;;;;5055173;28;20041;-76
2023/02/13 01:33:52;;;;;;;29.40;12.60;;;;;;;;;;5054580;28;20052;-76
2023/02/13 01:36:18;;;;;;;26.00;10.85;;;;;;;;;;5054355;28;20049;-76
2023/02/13 01:38:45;;;;;;;30.25;12.20;;;;;;;;;;5056948;28;20053;-75
2023/02/13 01:41:14;;;;;;;27.95;12.02;;;;;;;;;;5055118;28;20048;-75
2023/02/13 01:43:46;;;;;;;29.27;11.90;;;;;;;;;;5054569;28;20045;-76
2023/02/13 01:46:16;;;;;;;26.95;10.98;;;;;;;;;;5054065;28;20488;-76
2023/02/13 01:48:42;;;;;;;30.20;12.35;;;;;;;;;;5054171;28;20412;-75
2023/02/13 01:51:13;;;;;;;28.63;12.05;;;;;;;;;;5054174;28;20132;-75
2023/02/13 01:53:45;;;;;;;29.98;12.50;;;;;;;;;;5053804;28;20511;-75
2023/02/13 01:56:17;;;;;;;28.00;11.52;;;;;;;;;;5054576;28;20049;-75
2023/02/13 01:58:47;;;;;;;32.72;13.35;;;;;;;;;;5054293;28;20052;-75
2023/02/13 02:01:14;;;;;;;28.63;11.68;;;;;;;;;;5057885;28;20045;-76
2023/02/13 02:03:44;;;;;;;28.08;12.30;;;;;;;;;;5054434;28;20412;-75
2023/02/13 02:06:15;;;;;;;30.35;12.20;;;;;;;;;;5043352;28;20046;-76
2023/02/13 02:08:42;;;;;;;29.92;12.10;;;;;;;;;;5047688;28;20045;-76
2023/02/13 02:11:16;;;;;;;29.50;12.07;;;;;;;;;;5054450;28;20055;-75
2023/02/13 02:13:45;;;;;;;30.40;12.15;;;;;;;;;;5054487;28;20049;-75
2023/02/13 02:16:11;;;;;;;31.08;12.43;;;;;;;;;;5054250;28;20049;-75
2023/02/13 02:18:38;;;;;;;30.88;11.18;;;;;;;;;;5053942;28;20176;-75
2023/02/13 02:21:32;;;;;;;32.15;12.77;;;;;;;;;;5053935;28;20049;-76
2023/02/13 02:24:26;;;;;;;28.45;11.75;;;;;;;;;;5037757;28;20045;-74
2023/02/13 02:27:11;;;;;;;29.70;12.13;;;;;;;;;;5053315;28;20510;-75
2023/02/13 02:30:07;;;;;;;29.67;11.48;;;;;;;;;;5053671;28;20048;-75
2023/02/13 02:32:50;;;;;;;26.02;11.43;;;;;;;;;;5035838;28;20055;-75
2023/02/13 02:35:27;;;;;;;28.38;11.73;;;;;;;;;;5053769;28;20052;-77
2023/02/13 02:38:08;;;;;;;28.17;11.90;;;;;;;;;;5053553;28;20063;-75
2023/02/13 02:40:41;;;;;;;27.63;12.05;;;;;;;;;;5053283;28;20041;-74
2023/02/13 02:43:29;;;;;;;28.00;12.10;;;;;;;;;;5053582;28;20056;-75
2023/02/13 02:46:07;;;;;;;31.35;12.95;;;;;;;;;;5053406;28;20055;-75
2023/02/13 02:51:38;;;;;;;27.00;11.52;;;;;;;;;;5039759;28;20071;-77
2023/02/13 02:56:54;;;;;;;32.58;13.02;;;;;;;;;;5051931;28;20128;-75
2023/02/13 03:07:40;;;;;;;27.58;12.07;;;;;;;;;;5053324;28;20103;-74
2023/02/13 03:13:20;;;;;;;29.67;12.15;;;;;;;;;;5053240;28;20059;-75
2023/02/13 03:24:27;;;;;;;31.98;11.90;;;;;;;;;;5032815;28;20184;-74
2023/02/13 03:26:58;;;;;;;32.30;12.00;;;;;;;;;;5098455;22;20051;-78
2023/02/13 03:32:28;;;;;;;30.35;10.93;;;;;;;;;;5130810;27;20050;-78
2023/02/13 03:37:55;;;;;;;26.83;11.00;;;;;;;;;;5110673;28;20056;-78
2023/02/13 03:40:26;;;;;;;29.65;11.65;;;;;;;;;;5111276;28;20048;-77
2023/02/13 03:42:56;;;;;;;28.50;12.25;;;;;;;;;;5109845;28;20046;-77
2023/02/13 03:51:00;;;;;;;25.00;10.13;;;;;;;;;;5104972;28;20502;-77
2023/02/13 03:53:31;;;;;;;26.13;11.27;;;;;;;;;;5110468;28;20050;-77
2023/02/13 04:01:35;;;;;;;24.50;10.02;;;;;;;;;;5110377;28;20055;-78
2023/02/13 04:04:07;;;;;;;25.38;10.70;;;;;;;;;;5109741;28;20051;-78
2023/02/13 04:06:38;;;;;;;29.00;12.18;;;;;;;;;;5110334;28;20040;-77
2023/02/13 04:09:06;;;;;;;;;;;;;;;;;;5109931;28;20409;-78
2023/02/13 04:11:37;;;;;;;26.77;11.82;;;;;;;;;;5110605;28;20377;-79
2023/02/13 04:14:10;;;;;;;25.90;10.88;;;;;;;;;;5110649;28;20485;-79
2023/02/13 04:16:40;;;;;;;30.73;12.48;;;;;;;;;;5108751;28;20039;-78
2023/02/13 04:19:09;;;;;;;26.80;11.50;;;;;;;;;;5111074;28;20039;-78
2023/02/13 04:21:37;;;;;;;25.17;10.38;;;;;;;;;;5110827;28;20040;-77
2023/02/13 04:24:06;;;;;;;27.17;11.52;;;;;;;;;;5111025;28;20045;-78
2023/02/13 04:26:36;;;;;;;33.50;12.68;;;;;;;;;;5111136;28;20070;-77
2023/02/13 04:29:02;;;;;;;26.05;10.75;;;;;;;;;;5108520;28;20051;-77
2023/02/13 04:31:29;;;;;;;27.05;11.63;;;;;;;;;;5110623;28;20044;-78
2023/02/13 04:33:56;;;;;;;27.95;10.45;;;;;;;;;;5110457;28;20387;-75
2023/02/13 04:36:22;;;;;;;27.35;11.35;;;;;;;;;;5110720;28;20043;-77
2023/02/13 04:38:49;;;;;;;21.95;9.68;;;;;;;;;;5110099;28;20043;-77
2023/02/13 04:41:17;;;;;;;20.23;8.95;;;;;;;;;;5114688;28;20058;-79
2023/02/13 04:43:44;;;;;;;22.42;9.82;;;;;;;;;;5113636;28;20517;-77
2023/02/13 04:46:11;;;;;;;25.70;10.15;;;;;;;;;;5114950;28;20047;-77
2023/02/13 04:48:38;;;;;;;28.92;11.07;;;;;;;;;;5115230;28;20083;-78
2023/02/13 04:51:04;;;;;;;24.40;10.80;;;;;;;;;;5114558;28;20051;-78
2023/02/13 04:53:31;;;;;;;23.67;11.15;;;;;;;;;;5115158;28;20050;-77
2023/02/13 04:55:57;;;;;;;23.35;10.30;;;;;;;;;;5117344;28;20040;-78
2023/02/13 04:58:25;;;;;;;25.98;10.20;;;;;;;;;;5118758;28;20054;-78
2023/02/13 05:00:52;;;;;;;24.90;10.88;;;;;;;;;;5117635;28;20046;-79
2023/02/13 05:03:19;;;;;;;30.42;11.65;;;;;;;;;;5118291;28;20063;-78
2023/02/13 05:05:45;;;;;;;25.02;10.43;;;;;;;;;;5110087;28;20047;-78
2023/02/13 05:08:12;;;;;;;23.85;11.43;;;;;;;;;;5096915;28;20046;-77
2023/02/13 05:10:39;;;;;;;30.58;12.73;;;;;;;;;;5097220;28;20127;-78
2023/02/13 05:13:05;;;;;;;24.40;11.77;;;;;;;;;;5115001;28;20048;-77
2023/02/13 05:15:33;;;;;;;25.23;11.45;;;;;;;;;;5117021;28;20130;-78
2023/02/13 05:18:00;;;;;;;24.40;11.27;;;;;;;;;;5116160;28;20052;-78
2023/02/13 05:20:26;;;;;;;26.05;11.57;;;;;;;;;;5117079;28;20130;-77
2023/02/13 05:25:40;;;;;;;24.27;10.45;;;;;;;;;;5115523;28;20120;-76
2023/02/13 05:29:17;;;;;;;24.15;10.30;;;;;;;;;;5115502;28;20059;-77
2023/02/13 05:30:55;;;;;;;23.70;10.50;;;;;;;;;;5115466;28;20054;-76
2023/02/13 05:33:22;;;;;;;24.27;10.90;;;;;;;;;;5115525;28;20047;-78
2023/02/13 05:35:48;;;;;;;23.73;10.93;;;;;;;;;;5115686;28;20044;-78
2023/02/13 05:38:15;;;;;;;27.40;12.20;;;;;;;;;;5115749;28;20501;-77
2023/02/13 05:40:41;;;;;;;22.70;11.98;;;;;;;;;;5116085;28;20039;-77
2023/02/13 05:43:08;;;;;;;27.05;12.32;;;;;;;;;;5123541;28;20079;-77
2023/02/13 05:45:35;;;;;;;22.55;10.52;;;;;;;;;;5126733;28;20043;-78
2023/02/13 05:48:03;;;;;;;23.35;10.18;;;;;;;;;;5126610;28;20067;-78
2023/02/13 05:50:29;;;;;;;22.75;10.50;;;;;;;;;;5122460;28;20243;-78
2023/02/13 05:52:56;;;;;;;23.30;11.65;;;;;;;;;;5117255;28;20048;-79
2023/02/13 05:55:22;;;;;;;18.92;10.25;;;;;;;;;;5115156;28;20048;-77
2023/02/13 05:57:49;;;;;;;23.58;10.23;;;;;;;;;;5115068;28;20427;-77
2023/02/13 06:00:17;;;;;;;23.35;10.35;;;;;;;;;;5115013;28;20040;-77
2023/02/13 06:02:43;;;;;;;22.92;10.52;;;;;;;;;;5115034;28;20075;-79
2023/02/13 06:05:11;;;;;;;23.20;10.65;;;;;;;;;;5115046;28;20047;-78
2023/02/13 06:07:38;;;;;;;25.00;11.70;;;;;;;;;;5114481;28;20061;-78
2023/02/13 06:10:05;;;;;;;26.70;12.40;;;;;;;;;;5115223;28;20044;-78
2023/02/13 06:12:32;;;;;;;24.77;11.65;;;;;;;;;;5116405;28;20047;-77
2023/02/13 06:14:58;;;;;;;29.17;12.93;;;;;;;;;;5115617;28;20053;-79
2023/02/13 06:17:25;;;;;;;25.08;11.77;;;;;;;;;;5115530;28;20046;-77
2023/02/13 06:19:52;;;;;;;23.45;10.48;;;;;;;;;;5114930;28;20529;-78
2023/02/13 06:22:20;;;;;;;28.15;11.98;;;;;;;;;;5115197;28;20050;-78
2023/02/13 06:24:46;;;;;;;25.63;11.30;;;;;;;;;;5115303;28;20046;-77
2023/02/13 06:27:13;;;;;;;26.35;12.15;;;;;;;;;;5114729;28;20206;-77
2023/02/13 06:29:39;;;;;;;29.05;11.90;;;;;;;;;;5117539;28;20044;-77
2023/02/13 06:32:06;;;;;;;25.40;11.85;;;;;;;;;;5116888;28;20042;-77
2023/02/13 06:34:32;;;;;;;24.48;12.45;;;;;;;;;;5116644;28;20043;-76
2023/02/13 06:36:59;;;;;;;24.65;13.27;;;;;;;;;;5116315;28;20050;-77
2023/02/13 06:39:27;;;;;;;24.45;12.00;;;;;;;;;;5115956;28;20047;-78
2023/02/13 06:41:54;;;;;;;28.48;13.52;;;;;;;;;;5103975;28;20071;-77
2023/02/13 06:44:20;;;;;;;30.25;12.45;;;;;;;;;;5112588;28;20052;-77
2023/02/13 06:46:47;;;;;;;26.48;12.88;;;;;;;;;;5114273;28;20590;-77
2023/02/13 06:49:14;;;;;;;31.77;14.02;;;;;;;;;;5114495;28;20051;-78
2023/02/13 06:51:40;;;;;;;27.35;13.02;;;;;;;;;;5113713;28;20549;-77
2023/02/13 06:54:07;;;;;;;27.30;12.25;;;;;;;;;;5113419;28;20040;-77
2023/02/13 06:56:35;;;;;;;29.83;12.90;;;;;;;;;;5115242;28;20071;-77
2023/02/13 06:59:02;;;;;;;28.02;12.68;;;;;;;;;;5103985;28;20490;-78
2023/02/13 07:01:28;;;;;;;28.13;13.75;;;;;;;;;;5108392;28;20130;-77
2023/02/13 07:03:55;;;;;;;26.65;12.32;;;;;;;;;;5102283;28;20046;-78
2023/02/13 07:06:54;;;;;;;34.00;14.98;;;;;;;;;;5113170;28;20672;-77
2023/02/13 07:09:21;;;;;;;31.55;14.60;;;;;;;;;;5114493;28;20074;-78
2023/02/13 07:11:49;;;;;;;32.38;14.15;;;;;;;;;;5112456;28;20047;-81
2023/02/13 07:14:15;;;;;;;33.78;15.00;;;;;;;;;;5106809;28;20048;-79
2023/02/13 07:16:42;;;;;;;33.13;13.57;;;;;;;;;;5112762;28;20475;-78
2023/02/13 07:19:09;;;;;;;29.95;13.90;;;;;;;;;;5112078;28;20593;-77
2023/02/13 07:21:36;;;;;;;32.88;13.77;;;;;;;;;;5105761;28;20036;-75
2023/02/13 07:24:03;;;;;;;31.80;13.70;;;;;;;;;;5101968;28;20062;-77
2023/02/13 07:26:30;;;;;;;31.23;14.48;;;;;;;;;;5107755;28;20044;-78
2023/02/13 07:28:58;;;;;;;32.33;14.90;;;;;;;;;;5110628;28;20040;-79
2023/02/13 07:31:24;;;;;;;28.05;13.95;;;;;;;;;;5119323;28;20459;-78
2023/02/13 07:33:51;;;;;;;33.55;15.77;;;;;;;;;;5116605;28;20055;-78
2023/02/13 07:36:18;;;;;;;29.40;13.55;;;;;;;;;;5116404;28;20044;-77
2023/02/13 07:38:44;;;;;;;32.72;14.65;;;;;;;;;;5117096;28;20456;-78
2023/02/13 07:41:11;;;;;;;30.15;14.43;;;;;;;;;;5116762;28;20122;-78
2023/02/13 07:43:37;;;;;;;32.47;14.63;;;;;;;;;;5116403;28;20047;-78
2023/02/13 07:46:06;;;;;;;34.47;14.93;;;;;;;;;;5118281;28;20052;-78
2023/02/13 07:48:32;;;;;;;26.73;14.15;;;;;;;;;;5117980;28;20115;-78
2023/02/13 07:51:01;;;;;;;31.73;15.80;;;;;;;;;;5116879;28;20047;-78
2023/02/13 07:53:29;;;;;;;31.85;14.18;;;;;;;;;;5119236;28;20134;-78
2023/02/13 07:55:55;;;;;;;31.33;15.93;;;;;;;;;;5119993;28;20508;-79
2023/02/13 07:58:22;;;;;;;32.22;15.52;;;;;;;;;;5121021;28;20031;-77
2023/02/13 08:00:49;;;;;;;31.70;14.57;;;;;;;;;;5122453;28;20060;-76
2023/02/13 08:03:18;;;;;;;30.80;14.93;;;;;;;;;;5117984;28;20046;-77
2023/02/13 08:05:47;;;;;;;37.85;17.05;;;;;;;;;;5115332;28;20408;-77
2023/02/13 08:08:14;;;;;;;32.72;15.07;;;;;;;;;;5115429;28;20098;-78
2023/02/13 08:13:25;;;;;;;30.98;14.35;;;;;;;;;;5114438;28;20542;-78
2023/02/13 08:15:52;;;;;;;31.75;14.43;;;;;;;;;;5117766;28;20126;-76
2023/02/13 08:18:20;;;;;;;33.50;15.45;;;;;;;;;;5110631;28;20111;-77
2023/02/13 08:20:47;;;;;;;28.92;13.75;;;;;;;;;;5105756;28;20135;-79
2023/02/13 08:23:14;;;;;;;32.55;14.65;;;;;;;;;;5103676;28;20048;-77
2023/02/13 08:25:40;;;;;;;35.83;14.25;;;;;;;;;;5095113;28;20043;-78
2023/02/13 08:28:07;;;;;;;33.08;14.88;;;;;;;;;;5094054;28;20350;-77
2023/02/13 08:30:34;;;;;;;32.05;14.80;;;;;;;;;;5095728;28;20131;-76
2023/02/13 08:33:00;;;;;;;32.30;14.27;;;;;;;;;;5097238;28;20044;-78
2023/02/13 08:35:30;;;;;;;33.22;14.93;;;;;;;;;;5097113;28;20048;-77
2023/02/13 08:37:57;;;;;;;31.40;14.20;;;;;;;;;;5097555;28;20064;-77
2023/02/13 08:40:24;;;;;;;28.42;13.95;;;;;;;;;;5098770;28;20048;-82
2023/02/13 08:42:51;;;;;;;27.42;13.45;;;;;;;;;;5100899;28;20093;-84
2023/02/13 08:45:17;;;;;;;30.33;14.63;;;;;;;;;;5099995;28;20050;-77
2023/02/13 08:47:44;;;;;;;32.50;14.38;;;;;;;;;;5099314;28;20040;-84
2023/02/13 08:50:11;;;;;;;30.33;14.48;;;;;;;;;;5098189;28;20047;-77
2023/02/13 08:52:39;;;;;;;32.42;13.82;;;;;;;;;;5097193;28;20052;-78
2023/02/13 08:55:06;;;;;;;30.85;13.88;;;;;;;;;;5097943;28;20058;-77
2023/02/13 08:57:32;;;;;;;36.33;14.45;;;;;;;;;;5099277;28;20058;-77
2023/02/13 08:59:59;;;;;;;26.95;13.02;;;;;;;;;;5098991;28;20048;-78
2023/02/13 09:02:26;;;;;;;33.08;15.20;;;;;;;;;;5097479;28;20040;-77
2023/02/13 09:04:52;;;;;;;27.27;14.13;;;;;;;;;;5098445;28;20131;-78
2023/02/13 09:07:19;;;;;;;31.33;14.68;;;;;;;;;;5119837;28;20501;-77
2023/02/13 09:09:47;;;;;;;32.30;14.15;;;;;;;;;;5119660;28;20078;-77
2023/02/13 09:12:14;;;;;;;31.92;13.85;;;;;;;;;;5118606;28;20079;-78
2023/02/13 09:14:40;;;;;;;29.33;13.93;;;;;;;;;;5118943;28;20047;-77
2023/02/13 09:17:07;;;;;;;27.58;13.00;;;;;;;;;;5119043;28;20060;-79
2023/02/13 09:19:34;;;;;;;27.85;12.82;;;;;;;;;;5119339;28;20090;-78
2023/02/13 09:22:00;;;;;;;27.73;12.48;;;;;;;;;;5119416;28;20459;-78
2023/02/13 09:24:27;;;;;;;25.98;12.65;;;;;;;;;;5120406;28;20047;-77
2023/02/13 09:26:55;;;;;;;28.35;13.65;;;;;;;;;;5130515;22;20115;-75
2023/02/13 09:29:22;;;;;;;27.23;13.27;;;;;;;;;;5050931;28;20118;-71
2023/02/13 09:31:49;;;;;;;27.02;13.23;;;;;;;;;;5052178;28;20056;-72
2023/02/13 09:34:15;;;;;;;26.75;13.00;;;;;;;;;;5052614;28;20055;-70
2023/02/13 09:36:42;;;;;;;29.25;12.45;;;;;;;;;;5052451;28;20412;-72
2023/02/13 09:39:09;;;;;;;25.67;13.40;;;;;;;;;;5052750;28;20075;-71
2023/02/13 09:41:38;;;;;;;29.60;13.73;;;;;;;;;;5052344;28;20052;-71
2023/02/13 09:44:32;;;;;;;28.15;13.88;;;;;;;;;;5052055;28;20388;-71
2023/02/13 09:47:00;;;;;;;26.17;12.63;;;;;;;;;;5052421;28;20047;-71
2023/02/13 09:49:31;;;;;;;25.00;12.95;;;;;;;;;;5064465;28;20515;-73
2023/02/13 09:51:58;;;;;;;28.10;13.00;;;;;;;;;;5071682;28;20051;-70
2023/02/13 09:54:27;;;;;;;33.70;15.52;;;;;;;;;;5072344;28;20052;-72
2023/02/13 09:57:00;;;;;;;26.83;13.48;;;;;;;;;;5072645;28;20052;-73
2023/02/13 09:59:49;;;;;;;28.17;13.93;;;;;;;;;;5060495;28;20646;-73
2023/02/13 10:02:31;;;;;;;25.40;12.18;;;;;;;;;;5051711;28;20071;-72
2023/02/13 10:05:07;;;;;;;27.27;12.85;;;;;;;;;;5053773;28;20510;-72
2023/02/13 10:07:42;;;;;;;30.08;13.60;;;;;;;;;;5091782;28;20078;-72
2023/02/13 10:10:21;;;;;;;28.90;13.02;;;;;;;;;;5092355;28;20056;-72
2023/02/13 10:12:56;;;;;;;28.58;13.45;;;;;;;;;;5092002;28;20538;-73
2023/02/13 10:15:33;;;;;;;25.17;13.32;;;;;;;;;;5091616;28;20048;-73
2023/02/13 10:18:04;;;;;;;35.08;15.90;;;;;;;;;;5091882;28;20051;-73
2023/02/13 10:20:32;;;;;;;;;;;;;;;;;;5092599;28;20044;-73
2023/02/13 10:23:08;;;;;;;30.65;13.10;;;;;;;;;;5091583;28;19920;-72
2023/02/13 10:25:43;;;;;;;29.98;14.60;;;;;;;;;;5091793;28;20134;-72
2023/02/13 10:28:15;;;;;;;29.25;13.68;;;;;;;;;;5091512;28;20048;-71
2023/02/13 10:30:50;;;;;;;28.90;13.73;;;;;;;;;;5091708;28;20044;-71
2023/02/13 10:33:21;;;;;;;30.63;13.70;;;;;;;;;;5091363;28;20048;-71
2023/02/13 10:35:53;;;;;;;28.88;14.75;;;;;;;;;;5091910;28;20224;-71
2023/02/13 10:38:22;;;;;;;29.83;13.82;;;;;;;;;;5091401;28;20536;-73
2023/02/13 10:41:05;;;;;;;32.85;15.93;;;;;;;;;;5091669;28;20475;-72
2023/02/13 10:43:40;;;;;;;29.67;13.57;;;;;;;;;;5091348;28;20046;-71
2023/02/13 10:46:22;;;;;;;33.08;15.55;;;;;;;;;;5091243;28;20423;-71
2023/02/13 10:49:01;;;;;;;31.77;14.52;;;;;;;;;;5091186;28;20445;-71
2023/02/13 10:51:32;;;;;;;31.55;16.35;;;;;;;;;;5090982;28;20623;-72
2023/02/13 10:54:15;;;;;;;31.00;15.18;;;;;;;;;;5092077;28;20056;-71
2023/02/13 10:56:50;;;;;;;32.10;15.45;;;;;;;;;;5083454;28;20048;-74
2023/02/13 10:59:34;;;;;;;30.05;15.88;;;;;;;;;;5058279;28;20048;-72
2023/02/13 11:02:18;;;;;;;30.35;14.90;;;;;;;;;;5069755;28;20045;-71
2023/02/13 11:04:45;;;;;;;34.53;15.07;;;;;;;;;;5064569;28;20748;-72
2023/02/13 11:07:17;;;;;;;36.35;17.98;;;;;;;;;;5072912;28;20423;-71
2023/02/13 11:09:49;;;;;;;38.45;16.88;;;;;;;;;;5071779;28;20135;-71
2023/02/13 11:12:28;;;;;;;29.63;13.95;;;;;;;;;;5070840;28;20643;-70
2023/02/13 11:14:57;;;;;;;32.10;13.63;;;;;;;;;;5071855;28;20053;-72
2023/02/13 11:17:26;;;;;;;36.05;16.83;;;;;;;;;;5070662;28;20044;-71
2023/02/13 11:19:56;;;;;;;35.95;15.50;;;;;;;;;;5071810;28;20041;-71
2023/02/13 11:22:29;;;;;;;37.72;15.43;;;;;;;;;;5070089;28;20060;-72
2023/02/13 11:24:59;;;;;;;34.47;16.13;;;;;;;;;;5070563;28;20663;-71
2023/02/13 11:27:32;;;;;;;28.70;14.07;;;;;;;;;;5070169;28;20059;-72
2023/02/13 11:30:03;;;;;;;25.65;13.55;;;;;;;;;;5070311;28;20037;-73
2023/02/13 11:32:33;;;;;;;34.90;15.20;;;;;;;;;;5076171;28;20135;-70
2023/02/13 11:35:25;;;;;;;31.40;14.93;;;;;;;;;;5090791;28;20076;-71
2023/02/13 11:38:12;;;;;;;30.92;14.73;;;;;;;;;;5090319;28;20040;-71
2023/02/13 11:40:40;;;;;;;28.08;13.93;;;;;;;;;;5090849;28;20143;-71
2023/02/13 11:43:08;;;;;;;34.95;14.30;;;;;;;;;;5089825;28;20083;-72
2023/02/13 11:45:35;;;;;;;37.90;14.85;;;;;;;;;;5090278;28;20083;-71
2023/02/13 11:48:09;;;;;;;29.83;15.05;;;;;;;;;;5090130;28;20055;-72
2023/02/13 11:50:36;;;;;;;30.50;14.07;;;;;;;;;;5090310;28;20137;-72
2023/02/13 11:53:06;;;;;;;31.83;14.38;;;;;;;;;;5089996;28;20040;-70
2023/02/13 11:55:35;;;;;;;29.05;13.85;;;;;;;;;;5075160;28;20068;-70
2023/02/13 11:58:22;;;;;;;31.27;14.43;;;;;;;;;;5068313;28;20056;-71
2023/02/13 12:00:49;;;;;;;33.13;14.18;;;;;;;;;;5050873;28;20041;-71
2023/02/13 12:03:28;;;;;;;30.50;14.15;;;;;;;;;;5059908;28;20672;-75
2023/02/13 12:06:04;;;;;;;28.20;14.05;;;;;;;;;;5061244;28;20573;-73
2023/02/13 12:08:33;;;;;;;27.95;15.27;;;;;;;;;;5064833;28;20152;-71
2023/02/13 12:11:01;;;;;;;34.28;15.65;;;;;;;;;;5082539;28;20127;-73
2023/02/13 12:13:32;;;;;;;33.35;16.33;;;;;;;;;;5071242;28;20067;-71
2023/02/13 12:16:03;;;;;;;31.27;15.43;;;;;;;;;;5069598;28;20070;-76
2023/02/13 12:18:37;;;;;;;37.33;17.38;;;;;;;;;;5071835;28;20042;-78
2023/02/13 12:21:22;;;;;;;36.80;16.67;;;;;;;;;;5070813;28;20125;-76
2023/02/13 12:23:55;;;;;;;33.45;15.77;;;;;;;;;;5066092;28;20044;-75
2023/02/13 12:26:30;;;;;;;32.65;15.30;;;;;;;;;;5061968;28;20048;-76
2023/02/13 12:29:28;;;;;;;34.08;16.63;;;;;;;;;;5057629;28;20053;-75
2023/02/13 12:32:04;;;;;;;37.63;16.02;;;;;;;;;;5063592;28;20264;-72
2023/02/13 12:34:59;;;;;;;34.10;16.83;;;;;;;;;;5069367;28;20045;-71
2023/02/13 12:37:39;;;;;;;31.35;16.23;;;;;;;;;;5069829;28;20053;-72
2023/02/13 12:40:30;;;;;;;37.13;16.33;;;;;;;;;;5069036;28;20055;-72
2023/02/13 12:43:13;;;;;;;33.78;15.48;;;;;;;;;;5046343;28;20048;-71
2023/02/13 12:45:46;;;;;;;36.35;16.65;;;;;;;;;;5056619;28;20045;-72
2023/02/13 12:48:31;;;;;;;35.72;16.50;;;;;;;;;;5069575;28;20055;-72
2023/02/13 12:51:09;;;;;;;32.55;16.02;;;;;;;;;;5069687;28;20051;-72
2023/02/13 12:53:48;;;;;;;34.92;16.25;;;;;;;;;;5069129;28;20086;-72
2023/02/13 12:56:31;;;;;;;37.47;16.52;;;;;;;;;;5069583;28;20053;-72
2023/02/13 12:59:05;;;;;;;35.85;17.45;;;;;;;;;;5065585;28;20048;-73
2023/02/13 13:01:52;;;;;;;34.53;16.05;;;;;;;;;;5069286;28;20067;-72
2023/02/13 13:04:28;;;;;;;35.88;16.38;;;;;;;;;;5068947;28;20428;-72
2023/02/13 13:07:17;;;;;;;34.05;15.32;;;;;;;;;;5052027;28;20056;-72
2023/02/13 13:10:00;;;;;;;35.08;16.27;;;;;;;;;;5065600;28;20052;-78
2023/02/13 13:12:42;;;;;;;40.30;16.95;;;;;;;;;;5067546;28;20040;-73
2023/02/13 13:15:18;;;;;;;32.33;16.13;;;;;;;;;;5068431;28;20052;-72
2023/02/13 13:17:58;;;;;;;34.22;15.68;;;;;;;;;;5057310;28;20051;-72
2023/02/13 13:20:51;;;;;;;43.30;17.40;;;;;;;;;;5069158;28;20059;-71
2023/02/13 13:23:22;;;;;;;33.75;15.32;;;;;;;;;;5072657;28;20056;-74
2023/02/13 13:25:57;;;;;;;29.77;15.35;;;;;;;;;;5072489;28;20059;-72
2023/02/13 13:28:27;;;;;;;33.22;15.68;;;;;;;;;;5072034;28;20044;-72
2023/02/13 13:30:57;;;;;;;32.78;14.82;;;;;;;;;;5071899;28;20037;-72
2023/02/13 13:33:25;;;;;;;31.83;15.07;;;;;;;;;;5071925;28;20047;-73
2023/02/13 13:35:59;;;;;;;28.67;14.27;;;;;;;;;;5072809;28;20078;-73
2023/02/13 13:38:38;;;;;;;29.50;15.75;;;;;;;;;;5057268;28;20060;-72
2023/02/13 13:41:14;;;;;;;37.30;16.30;;;;;;;;;;5052585;28;20060;-74
2023/02/13 13:43:58;;;;;;;30.80;14.52;;;;;;;;;;5051708;28;20051;-75
2023/02/13 13:46:36;;;;;;;29.85;14.60;;;;;;;;;;5064841;28;20132;-74
2023/02/13 13:49:12;;;;;;;32.38;15.45;;;;;;;;;;5072118;28;20045;-74
2023/02/13 13:51:38;;;;;;;28.10;13.90;;;;;;;;;;5071827;28;20045;-73
2023/02/13 13:54:23;;;;;;;33.25;16.42;;;;;;;;;;5071872;28;20044;-73
2023/02/13 13:57:06;;;;;;;28.67;14.68;;;;;;;;;;5071256;28;20131;-73
2023/02/13 14:00:23;;;;;;;28.23;13.73;;;;;;;;;;5071931;28;20415;-73
2023/02/13 14:02:51;;;;;;;28.35;13.07;;;;;;;;;;5029937;28;20056;-73
2023/02/13 14:05:27;;;;;;;33.88;14.43;;;;;;;;;;5070789;28;20040;-75
2023/02/13 14:07:56;;;;;;;29.83;13.82;;;;;;;;;;5060745;28;20068;-74
2023/02/13 14:11:08;;;;;;;30.10;13.45;;;;;;;;;;5071899;28;20139;-74
2023/02/13 14:13:38;;;;;;;27.77;14.02;;;;;;;;;;5067049;28;20102;-75
2023/02/13 14:16:09;;;;;;;29.15;14.73;;;;;;;;;;5056936;28;20045;-73
2023/02/13 14:18:37;;;;;;;31.88;15.40;;;;;;;;;;5053664;28;20051;-74
2023/02/13 14:21:04;;;;;;;29.02;14.90;;;;;;;;;;5071756;28;20063;-74
2023/02/13 14:23:52;;;;;;;30.58;16.42;;;;;;;;;;5071283;28;20041;-73
2023/02/13 14:26:31;;;;;;;29.48;14.55;;;;;;;;;;5069993;28;20044;-74
2023/02/13 14:29:22;;;;;;;29.63;14.63;;;;;;;;;;5070992;28;20463;-74
2023/02/13 14:32:00;;;;;;;29.85;14.98;;;;;;;;;;5069621;28;20048;-74
2023/02/13 14:34:31;;;;;;;29.20;13.52;;;;;;;;;;5071679;28;20048;-74
2023/02/13 14:37:23;;;;;;;25.75;13.48;;;;;;;;;;5070841;28;20059;-74
2023/02/13 14:40:33;;;;;;;31.95;13.93;;;;;;;;;;5070008;28;20094;-75
2023/02/13 14:43:39;;;;;;;30.95;14.88;;;;;;;;;;5062047;28;20052;-74
2023/02/13 14:46:24;;;;;;;29.73;14.85;;;;;;;;;;5070848;28;20052;-74
2023/02/13 14:48:57;;;;;;;33.58;15.65;;;;;;;;;;5070458;28;20510;-74
2023/02/13 14:51:30;;;;;;;34.58;15.55;;;;;;;;;;5071401;28;20106;-74
2023/02/13 14:54:03;;;;;;;27.75;14.60;;;;;;;;;;5072072;28;20070;-73
2023/02/13 14:56:32;;;;;;;31.38;15.38;;;;;;;;;;5071370;28;20422;-73
2023/02/13 14:59:06;;;;;;;29.42;14.60;;;;;;;;;;5071590;28;20048;-74
2023/02/13 15:01:37;;;;;;;29.13;15.05;;;;;;;;;;5070866;28;20041;-73
2023/02/13 15:04:11;;;;;;;31.63;15.23;;;;;;;;;;5072875;28;20609;-73
2023/02/13 15:06:41;;;;;;;31.48;14.65;;;;;;;;;;5087324;28;20425;-73
2023/02/13 15:09:20;;;;;;;27.45;14.60;;;;;;;;;;5091906;28;20054;-73
2023/02/13 15:11:46;;;;;;;29.13;14.20;;;;;;;;;;5074575;28;20075;-75
2023/02/13 15:14:29;;;;;;;30.40;14.63;;;;;;;;;;5051476;28;20407;-74
2023/02/13 15:17:05;;;;;;;32.35;16.10;;;;;;;;;;5070084;28;20462;-74
2023/02/13 15:19:35;;;;;;;32.08;14.38;;;;;;;;;;5061232;28;20158;-74
2023/02/13 15:22:04;;;;;;;33.20;15.73;;;;;;;;;;5050875;28;20049;-73
2023/02/13 15:24:37;;;;;;;30.88;14.77;;;;;;;;;;5072362;28;20308;-74
2023/02/13 15:27:07;;;;;;;28.55;14.27;;;;;;;;;;5050841;28;20072;-75
2023/02/13 15:29:33;;;;;;;30.70;14.85;;;;;;;;;;5059591;28;20143;-73
2023/02/13 15:32:17;;;;;;;28.23;14.63;;;;;;;;;;5061850;28;20502;-73